createdAt,value
2022-09-01T00:00:11.297Z,97757.03
2022-09-01T00:02:38.306Z,97750.09
2022-09-01T00:05:07.576Z,97751.56
2022-09-01T00:07:35.440Z,97749.59
2022-09-01T00:10:06.171Z,97750.44
2022-09-01T00:12:33.364Z,97750.13
2022-09-01T00:15:00.142Z,97752.97
2022-09-01T00:17:27.629Z,97748.81
2022-09-01T00:19:54.359Z,97746.50
2022-09-01T00:22:21.625Z,97748.03
2022-09-01T00:24:48.400Z,97753.00
2022-09-01T00:27:15.115Z,97754.19
2022-09-01T00:29:43.351Z,97744.09
2022-09-01T00:32:11.772Z,97752.19
2022-09-01T00:34:39.002Z,97750.22
2022-09-01T00:37:05.698Z,97745.25
2022-09-01T00:39:32.683Z,97738.44
2022-09-01T00:41:59.605Z,97743.94
2022-09-01T00:44:29.675Z,97743.75
2022-09-01T00:46:58.416Z,97739.59
2022-09-01T00:49:40.522Z,97742.91
2022-09-01T00:52:14.179Z,97747.41
2022-09-01T00:54:44.915Z,97745.41
2022-09-01T00:57:13.179Z,97740.97
2022-09-01T00:59:55.026Z,97743.94
2022-09-01T01:02:22.970Z,97740.97
2022-09-01T01:04:49.807Z,97744.94
2022-09-01T01:07:16.946Z,97741.47
2022-09-01T01:09:46.480Z,97744.78
2022-09-01T01:12:18.270Z,97744.78
2022-09-01T01:14:50.488Z,97734.97
2022-09-01T01:17:18.696Z,97743.44
2022-09-01T01:20:08.499Z,97737.31
2022-09-01T01:23:05.361Z,97741.78
2022-09-01T01:25:34.633Z,97745.59
2022-09-01T01:28:07.966Z,97744.13
2022-09-01T01:30:37.115Z,97746.59
2022-09-01T01:33:05.417Z,97747.91
2022-09-01T01:35:34.002Z,97742.59
2022-09-01T01:38:02.404Z,97742.28
2022-09-01T01:40:30.128Z,97748.25
2022-09-01T01:42:57.567Z,97740.63
2022-09-01T01:45:26.045Z,97742.28
2022-09-01T01:47:54.280Z,97739.81
2022-09-01T01:50:33.530Z,97733.69
2022-09-01T01:53:03.002Z,97740.81
2022-09-01T01:55:38.183Z,97737.97
2022-09-01T01:58:05.276Z,97737.31
2022-09-01T02:00:34.624Z,97736.50
2022-09-01T02:03:02.952Z,97731.69
2022-09-01T02:05:32.752Z,97731.38
2022-09-01T02:08:04.889Z,97739.66
2022-09-01T02:10:36.010Z,97737.38
2022-09-01T02:13:05.901Z,97744.47
2022-09-01T02:15:43.221Z,97743.31
2022-09-01T02:18:14.499Z,97737.50
2022-09-01T02:20:42.005Z,97743.63
2022-09-01T02:23:10.894Z,97743.63
2022-09-01T02:25:58.962Z,97745.28
2022-09-01T02:28:33.077Z,97745.47
2022-09-01T02:31:00.096Z,97733.69
2022-09-01T02:33:28.427Z,97732.88
2022-09-01T02:36:00.344Z,97726.25
2022-09-01T02:38:29.854Z,97723.78
2022-09-01T02:40:59.552Z,97719.00
2022-09-01T02:43:28.411Z,97726.94
2022-09-01T02:45:59.896Z,97722.78
2022-09-01T02:48:33.133Z,97723.47
2022-09-01T02:51:02.719Z,97730.56
2022-09-01T02:53:30.884Z,97729.72
2022-09-01T02:55:59.573Z,97724.94
2022-09-01T02:58:27.852Z,97728.25
2022-09-01T03:00:57.077Z,97729.38
2022-09-01T03:03:25.701Z,97727.09
2022-09-01T03:05:55.891Z,97730.56
2022-09-01T03:08:24.631Z,97729.06
2022-09-01T03:10:53.895Z,97729.56
2022-09-01T03:13:27.497Z,97734.34
2022-09-01T03:15:54.255Z,97735.72
2022-09-01T03:18:21.782Z,97730.56
2022-09-01T03:20:51.039Z,97727.41
2022-09-01T03:23:19.478Z,97722.78
2022-09-01T03:25:47.813Z,97724.09
2022-09-01T03:28:16.125Z,97719.13
2022-09-01T03:30:52.051Z,97713.50
2022-09-01T03:33:20.902Z,97714.53
2022-09-01T03:35:51.743Z,97706.06
2022-09-01T03:38:24.441Z,97707.56
2022-09-01T03:41:03.106Z,97704.59
2022-09-01T03:43:36.143Z,97709.53
2022-09-01T03:46:04.445Z,97706.06
2022-09-01T03:48:32.497Z,97708.88
2022-09-01T03:51:02.894Z,97702.91
2022-09-01T03:53:37.721Z,97704.06
2022-09-01T03:56:06.406Z,97698.63
2022-09-01T03:58:33.970Z,97710.88
2022-09-01T04:01:03.133Z,97704.75
2022-09-01T04:03:34.588Z,97708.72
2022-09-01T04:06:03.486Z,97711.53
2022-09-01T04:08:33.855Z,97703.75
2022-09-01T04:11:05.288Z,97704.94
2022-09-01T04:13:40.004Z,97701.91
2022-09-01T04:16:10.933Z,97704.75
2022-09-01T04:18:40.245Z,97698.59
2022-09-01T04:21:08.202Z,97695.47
2022-09-01T04:23:37.107Z,97707.03
2022-09-01T04:26:10.480Z,97694.28
2022-09-01T04:28:41.304Z,97701.25
2022-09-01T04:31:15.039Z,97697.13
2022-09-01T04:33:44.697Z,97697.78
2022-09-01T04:36:22.376Z,97692.31
2022-09-01T04:38:55.319Z,97689.84
2022-09-01T04:41:26.613Z,97692.66
2022-09-01T04:43:57.161Z,97693.66
2022-09-01T04:46:28.474Z,97685.38
2022-09-01T04:48:57.685Z,97687.34
2022-09-01T04:51:28.262Z,97683.06
2022-09-01T04:53:57.693Z,97686.22
2022-09-01T04:56:27.915Z,97686.41
2022-09-01T04:59:12.984Z,97685.56
2022-09-01T05:01:45.224Z,97678.47
2022-09-01T05:04:20.591Z,97680.44
2022-09-01T05:06:50.518Z,97688.34
2022-09-01T05:09:21.008Z,97677.41
2022-09-01T05:11:54.117Z,97678.56
2022-09-01T05:14:28.228Z,97682.03
2022-09-01T05:16:59.237Z,97675.59
2022-09-01T05:19:30.447Z,97682.22
2022-09-01T05:22:00.344Z,97680.38
2022-09-01T05:24:30.914Z,97681.75
2022-09-01T05:27:02.139Z,97679.72
2022-09-01T05:29:31.408Z,97681.03
2022-09-01T05:31:59.149Z,97684.34
2022-09-01T05:34:27.046Z,97681.72
2022-09-01T05:36:58.258Z,97673.78
2022-09-01T05:39:27.271Z,97674.75
2022-09-01T05:41:55.356Z,97674.53
2022-09-01T05:44:22.938Z,97682.63
2022-09-01T05:46:53.602Z,97680.91
2022-09-01T05:49:21.199Z,97677.53
2022-09-01T05:51:52.522Z,97669.31
2022-09-01T05:54:27.265Z,97666.63
2022-09-01T05:57:12.635Z,97672.25
2022-09-01T05:59:47.025Z,97670.91
2022-09-01T06:02:17.827Z,97676.66
2022-09-01T06:04:44.763Z,97675.16
2022-09-01T06:07:18.495Z,97686.59
2022-09-01T06:09:53.736Z,97679.59
2022-09-01T06:12:24.865Z,97687.31
2022-09-01T06:14:54.945Z,97700.41
2022-09-01T06:17:25.925Z,97697.25
2022-09-01T06:19:56.474Z,97694.75
2022-09-01T06:22:26.469Z,97690.56
2022-09-01T06:24:58.222Z,97687.22
2022-09-01T06:27:29.396Z,97689.44
2022-09-01T06:29:56.562Z,97686.34
2022-09-01T06:32:25.977Z,97695.13
2022-09-01T06:34:54.078Z,97687.97
2022-09-01T06:37:22.469Z,97684.44
2022-09-01T06:39:52.307Z,97692.59
2022-09-01T06:42:19.979Z,97694.41
2022-09-01T06:44:52.687Z,97691.34
2022-09-01T06:47:19.989Z,97690.25
2022-09-01T06:49:46.783Z,97696.75
2022-09-01T06:52:21.941Z,97692.06
2022-09-01T06:54:51.071Z,97696.94
2022-09-01T07:00:20.992Z,97701.38
2022-09-01T07:02:54.808Z,97705.78
2022-09-01T07:14:25.967Z,97716.75
2022-09-01T07:17:22.359Z,97723.38
2022-09-01T07:19:55.116Z,97726.50
2022-09-01T07:23:03.552Z,97724.41
2022-09-01T07:25:12.858Z,97731.22
2022-09-01T07:28:01.602Z,97729.00
2022-09-01T07:30:29.075Z,97730.59
2022-09-01T07:32:56.085Z,97730.44
2022-09-01T07:35:25.074Z,97735.03
2022-09-01T07:43:56.764Z,97735.72
2022-09-01T07:46:42.128Z,97726.63
2022-09-01T07:49:33.826Z,97726.00
2022-09-01T07:52:03.851Z,97724.44
2022-09-01T07:54:31.712Z,97727.47
2022-09-01T07:56:59.145Z,97721.81
2022-09-01T07:59:27.950Z,97723.94
2022-09-01T08:02:18.347Z,97735.03
2022-09-01T08:04:46.422Z,97734.34
2022-09-01T08:07:15.894Z,97730.44
2022-09-01T08:09:44.729Z,97736.44
2022-09-01T08:12:14.001Z,97734.69
2022-09-01T08:15:12.780Z,97740.78
2022-09-01T08:17:56.103Z,97725.88
2022-09-01T08:20:24.973Z,97726.09
2022-09-01T08:22:55.316Z,97729.97
2022-09-01T08:25:29.571Z,97736.16
2022-09-01T08:28:00.308Z,97738.56
2022-09-01T08:30:28.468Z,97732.03
2022-09-01T08:32:55.696Z,97741.53
2022-09-01T08:35:23.248Z,97742.13
2022-09-01T08:37:49.997Z,97741.72
2022-09-01T08:40:20.695Z,97749.50
2022-09-01T08:43:35.077Z,97745.31
2022-09-01T08:46:12.396Z,97745.91
2022-09-01T08:52:07.355Z,97737.34
2022-09-01T08:54:48.307Z,97740.16
2022-09-01T08:57:35.796Z,97738.59
2022-09-01T09:00:20.328Z,97726.66
2022-09-01T09:03:08.928Z,97730.81
2022-09-01T09:06:25.820Z,97724.56
2022-09-01T09:09:03.007Z,97727.13
2022-09-01T09:11:54.493Z,97720.69
2022-09-01T09:14:36.421Z,97712.50
2022-09-01T09:17:04.352Z,97721.50
2022-09-01T09:19:37.059Z,97713.88
2022-09-01T09:22:16.183Z,97719.00
2022-09-01T09:24:56.293Z,97707.84
2022-09-01T09:27:25.249Z,97710.72
2022-09-01T09:29:58.169Z,97713.81
2022-09-01T09:33:11.638Z,97715.84
2022-09-01T09:35:33.108Z,97707.25
2022-09-01T09:38:32.714Z,97716.53
2022-09-01T09:41:18.852Z,97710.06
2022-09-01T09:43:58.656Z,97707.25
2022-09-01T09:46:43.635Z,97697.41
2022-09-01T09:49:36.569Z,97706.59
2022-09-01T09:52:09.894Z,97703.31
2022-09-01T09:54:39.397Z,97700.97
2022-09-01T09:57:09.083Z,97700.31
2022-09-01T09:59:57.628Z,97687.13
2022-09-01T10:02:40.101Z,97693.84
2022-09-01T10:05:42.797Z,97685.19
2022-09-01T10:08:47.995Z,97676.72
2022-09-01T10:11:35.632Z,97688.03
2022-09-01T10:14:06.976Z,97688.16
2022-09-01T10:16:38.811Z,97678.09
2022-09-01T10:19:13.013Z,97675.84
2022-09-01T10:21:46.107Z,97671.31
2022-09-01T10:24:31.024Z,97684.16
2022-09-01T10:27:03.215Z,97673.34
2022-09-01T10:29:48.262Z,97671.44
2022-09-01T10:32:36.883Z,97676.69
2022-09-01T10:35:18.246Z,97680.25
2022-09-01T10:37:47.082Z,97672.41
2022-09-01T10:40:33.422Z,97683.63
2022-09-01T10:43:22.612Z,97677.22
2022-09-01T10:45:56.070Z,97671.41
2022-09-01T10:48:32.616Z,97683.59
2022-09-01T10:51:21.164Z,97689.97
2022-09-01T10:53:53.548Z,97687.22
2022-09-01T10:56:44.403Z,97686.56
2022-09-01T10:59:32.837Z,97689.13
2022-09-01T11:02:26.042Z,97688.50
2022-09-01T11:05:00.309Z,97691.69
2022-09-01T11:07:50.653Z,97689.88
2022-09-01T11:10:33.866Z,97690.47
2022-09-01T11:13:19.898Z,97688.41
2022-09-01T11:15:48.546Z,97690.84
2022-09-01T11:18:29.567Z,97691.19
2022-09-01T11:21:23.933Z,97695.84
2022-09-01T11:23:51.088Z,97692.13
2022-09-01T11:26:46.543Z,97690.84
2022-09-01T11:29:55.586Z,97695.72
2022-09-01T11:32:30.227Z,97694.13
2022-09-01T11:34:57.977Z,97687.81
2022-09-01T11:37:27.821Z,97687.72
2022-09-01T11:39:59.414Z,97701.38
2022-09-01T11:42:36.143Z,97694.16
2022-09-01T11:45:24.714Z,97697.44
2022-09-01T11:48:13.313Z,97699.69
2022-09-01T11:50:42.255Z,97690.66
2022-09-01T11:53:15.582Z,97700.91
2022-09-01T11:55:43.992Z,97701.66
2022-09-01T11:58:17.744Z,97696.13
2022-09-01T12:00:45.074Z,97698.47
2022-09-01T12:03:25.383Z,97699.50
2022-09-01T12:05:59.489Z,97696.66
2022-09-01T12:08:30.785Z,97696.81
2022-09-01T12:11:21.223Z,97690.88
2022-09-01T12:14:11.582Z,97700.31
2022-09-01T12:16:42.649Z,97706.91
2022-09-01T12:19:23.870Z,97699.91
2022-09-01T12:22:03.755Z,97697.44
2022-09-01T12:24:37.068Z,97704.59
2022-09-01T12:27:04.891Z,97693.00
2022-09-01T12:29:33.148Z,97695.16
2022-09-01T12:32:01.693Z,97696.84
2022-09-01T12:34:34.601Z,97694.19
2022-09-01T12:37:09.567Z,97699.53
2022-09-01T12:39:41.421Z,97692.88
2022-09-01T12:42:20.798Z,97687.91
2022-09-01T12:44:51.064Z,97693.50
2022-09-01T12:47:36.083Z,97689.94
2022-09-01T12:50:11.440Z,97688.94
2022-09-01T12:52:52.831Z,97685.22
2022-09-01T12:58:12.937Z,97690.38
2022-09-01T13:01:12.242Z,97686.16
2022-09-01T13:04:03.590Z,97691.34
2022-09-01T13:06:30.270Z,97690.78
2022-09-01T13:08:56.960Z,97685.94
2022-09-01T13:11:26.055Z,97688.41
2022-09-01T13:13:52.784Z,97695.59
2022-09-01T13:16:19.490Z,97692.50
2022-09-01T13:21:35.237Z,97687.56
2022-09-01T13:24:05.005Z,97698.69
2022-09-01T13:26:32.283Z,97695.41
2022-09-01T13:29:00.089Z,97700.31
2022-09-01T13:31:29.435Z,97697.22
2022-09-01T13:34:22.166Z,97698.06
2022-09-01T13:36:46.374Z,97698.91
2022-09-01T13:39:15.768Z,97695.78
2022-09-01T13:41:43.085Z,97696.22
2022-09-01T13:44:11.627Z,97701.34
2022-09-01T13:46:59.032Z,97699.50
2022-09-01T13:52:12.870Z,97700.91
2022-09-01T13:54:42.539Z,97693.72
2022-09-01T13:57:09.296Z,97701.16
2022-09-01T13:59:36.278Z,97697.03
2022-09-01T14:02:03.528Z,97698.66
2022-09-01T14:04:30.862Z,97695.81
2022-09-01T14:06:59.701Z,97709.34
2022-09-01T14:09:26.767Z,97709.13
2022-09-01T14:11:55.065Z,97704.63
2022-09-01T14:14:24.720Z,97707.28
2022-09-01T14:16:51.895Z,97708.94
2022-09-01T14:19:18.976Z,97713.44
2022-09-01T14:21:47.340Z,97708.50
2022-09-01T14:24:14.872Z,97716.13
2022-09-01T14:26:42.339Z,97702.34
2022-09-01T14:29:09.484Z,97709.31
2022-09-01T14:31:37.730Z,97707.25
2022-09-01T14:34:04.950Z,97708.91
2022-09-01T14:36:31.621Z,97703.56
2022-09-01T14:38:59.476Z,97707.25
2022-09-01T14:41:27.172Z,97705.81
2022-09-01T14:43:57.667Z,97712.22
2022-09-01T14:46:26.801Z,97712.81
2022-09-01T14:48:53.732Z,97708.50
2022-09-01T14:51:26.175Z,97707.88
2022-09-01T14:53:53.658Z,97710.34
2022-09-01T14:56:21.678Z,97703.75
2022-09-01T14:58:49.863Z,97704.97
2022-09-01T15:01:33.884Z,97709.47
2022-09-01T15:04:02.078Z,97702.84
2022-09-01T15:06:28.850Z,97700.97
2022-09-01T15:08:55.537Z,97711.81
2022-09-01T15:11:22.295Z,97709.56
2022-09-01T15:13:52.158Z,97704.59
2022-09-01T15:16:23.139Z,97712.16
2022-09-01T15:18:50.538Z,97711.56
2022-09-01T15:21:33.330Z,97706.03
2022-09-01T15:24:01.358Z,97710.09
2022-09-01T15:26:28.722Z,97714.84
2022-09-01T15:28:57.292Z,97705.34
2022-09-01T15:31:32.688Z,97707.63
2022-09-01T15:34:01.889Z,97709.47
2022-09-01T15:36:29.827Z,97705.75
2022-09-01T15:38:57.326Z,97709.03
2022-09-01T15:41:27.063Z,97712.72
2022-09-01T15:43:54.411Z,97711.94
2022-09-01T15:46:21.704Z,97710.72
2022-09-01T15:48:48.465Z,97706.38
2022-09-01T15:51:24.120Z,97705.19
2022-09-01T15:53:53.289Z,97711.53
2022-09-01T15:56:20.302Z,97710.34
2022-09-01T15:59:00.423Z,97717.72
2022-09-01T16:01:30.534Z,97718.34
2022-09-01T16:03:57.910Z,97713.16
2022-09-01T16:06:24.734Z,97713.84
2022-09-01T16:08:52.631Z,97717.72
2022-09-01T16:11:19.329Z,97720.56
2022-09-01T16:13:45.990Z,97716.41
2022-09-01T16:16:51.913Z,97718.03
2022-09-01T16:19:28.470Z,97717.19
2022-09-01T16:22:13.646Z,97715.13
2022-09-01T16:24:47.518Z,97716.72
2022-09-01T16:27:18.215Z,97710.97
2022-09-01T16:30:02.922Z,97713.81
2022-09-01T16:32:31.539Z,97715.00
2022-09-01T16:34:58.279Z,97711.94
2022-09-01T16:37:33.696Z,97707.56
2022-09-01T16:40:13.999Z,97713.34
2022-09-01T16:42:58.855Z,97717.34
2022-09-01T16:45:59.857Z,97714.88
2022-09-01T16:48:29.319Z,97718.31
2022-09-01T16:51:01.762Z,97719.72
2022-09-01T16:53:28.518Z,97719.66
2022-09-01T16:56:09.685Z,97715.50
2022-09-01T16:59:11.993Z,97721.66
2022-09-01T17:01:59.622Z,97735.19
2022-09-01T17:04:26.274Z,97728.41
2022-09-01T17:07:08.571Z,97730.16
2022-09-01T17:10:06.707Z,97739.94
2022-09-01T17:12:44.887Z,97741.72
2022-09-01T17:15:15.738Z,97742.75
2022-09-01T17:17:48.733Z,97749.47
2022-09-01T17:20:16.708Z,97753.31
2022-09-01T17:22:57.055Z,97755.75
2022-09-01T17:25:40.895Z,97757.31
2022-09-01T17:28:15.478Z,97756.06
2022-09-01T17:31:06.814Z,97758.19
2022-09-01T17:33:56.637Z,97764.69
2022-09-01T17:36:46.992Z,97762.63
2022-09-01T17:39:32.035Z,97763.69
2022-09-01T17:42:02.911Z,97757.19
2022-09-01T17:44:59.859Z,97758.53
2022-09-01T17:47:38.819Z,97770.50
2022-09-01T17:50:11.397Z,97769.50
2022-09-01T17:52:56.387Z,97767.56
2022-09-01T17:55:59.489Z,97764.91
2022-09-01T17:59:06.345Z,97771.44
2022-09-01T18:01:52.028Z,97776.75
2022-09-01T18:04:21.200Z,97776.66
2022-09-01T18:06:47.844Z,97789.69
2022-09-01T18:09:17.964Z,97787.56
2022-09-01T18:12:12.395Z,97796.31
2022-09-01T18:14:53.606Z,97807.50
2022-09-01T18:17:35.982Z,97815.88
2022-09-01T18:20:16.110Z,97809.72
2022-09-01T18:25:25.858Z,97817.06
2022-09-01T18:27:52.676Z,97816.50
2022-09-01T18:30:42.700Z,97813.94
2022-09-01T18:33:25.941Z,97826.06
2022-09-01T18:36:12.301Z,97811.72
2022-09-01T18:39:06.935Z,97823.56
2022-09-01T18:41:45.014Z,97820.38
2022-09-01T18:44:37.600Z,97827.44
2022-09-01T18:47:09.090Z,97834.13
2022-09-01T18:50:00.634Z,97830.00
2022-09-01T18:52:48.970Z,97833.19
2022-09-01T18:55:24.395Z,97835.41
2022-09-01T18:57:57.827Z,97826.25
2022-09-01T19:00:30.835Z,97831.72
2022-09-01T19:03:16.205Z,97830.09
2022-09-01T19:06:01.026Z,97836.78
2022-09-01T19:08:44.584Z,97832.00
2022-09-01T19:11:23.030Z,97830.38
2022-09-01T19:14:06.087Z,97832.47
2022-09-01T19:16:48.151Z,97837.59
2022-09-01T19:20:00.057Z,97831.19
2022-09-01T19:22:51.650Z,97836.88
2022-09-01T19:25:33.993Z,97833.38
2022-09-01T19:28:15.554Z,97843.34
2022-09-01T19:31:00.840Z,97831.91
2022-09-01T19:33:33.641Z,97840.53
2022-09-01T19:36:07.152Z,97845.75
2022-09-01T19:38:33.837Z,97845.84
2022-09-01T19:41:25.499Z,97851.72
2022-09-01T19:44:02.485Z,97851.06
2022-09-01T19:46:36.599Z,97850.59
2022-09-01T19:49:49.276Z,97844.91
2022-09-01T19:52:25.645Z,97845.09
2022-09-01T19:55:14.727Z,97854.25
2022-09-01T19:57:50.454Z,97849.31
2022-09-01T20:00:24.347Z,97855.00
2022-09-01T20:03:08.973Z,97862.13
2022-09-01T20:05:48.732Z,97859.84
2022-09-01T20:08:21.064Z,97865.16
2022-09-01T20:11:10.664Z,97856.63
2022-09-01T20:13:58.367Z,97853.31
2022-09-01T20:16:41.774Z,97858.66
2022-09-01T20:19:15.523Z,97854.16
2022-09-01T20:21:45.409Z,97856.63
2022-09-01T20:24:38.405Z,97847.31
2022-09-01T20:27:23.657Z,97854.06
2022-09-01T20:29:58.152Z,97859.25
2022-09-01T20:32:51.814Z,97853.72
2022-09-01T20:35:39.877Z,97852.09
2022-09-01T20:38:32.410Z,97854.25
2022-09-01T20:41:10.738Z,97865.09
2022-09-01T20:43:42.648Z,97864.78
2022-09-01T20:46:09.483Z,97858.84
2022-09-01T20:48:39.930Z,97859.81
2022-09-01T20:51:12.306Z,97861.50
2022-09-01T20:54:01.879Z,97864.84
2022-09-01T20:56:51.013Z,97865.03
2022-09-01T20:59:48.864Z,97857.25
2022-09-01T21:02:24.861Z,97862.72
2022-09-01T21:05:23.070Z,97864.56
2022-09-01T21:07:56.421Z,97862.06
2022-09-01T21:10:26.220Z,97863.91
2022-09-01T21:13:22.868Z,97864.91
2022-09-01T21:16:20.022Z,97869.41
2022-09-01T21:19:22.759Z,97863.63
2022-09-01T21:22:09.301Z,97863.78
2022-09-01T21:24:36.224Z,97863.97
2022-09-01T21:27:07.982Z,97859.66
2022-09-01T21:29:43.642Z,97863.00
2022-09-01T21:32:11.792Z,97860.72
2022-09-01T21:34:38.743Z,97853.09
2022-09-01T21:37:05.471Z,97859.41
2022-09-01T21:39:34.441Z,97855.94
2022-09-01T21:42:01.675Z,97854.28
2022-09-01T21:44:29.661Z,97850.13
2022-09-01T21:46:57.265Z,97847.66
2022-09-01T21:49:24.409Z,97847.66
2022-09-01T21:51:51.216Z,97848.50
2022-09-01T21:54:18.075Z,97842.00
2022-09-01T21:56:44.719Z,97847.47
2022-09-01T21:59:17.065Z,97849.50
2022-09-01T22:01:44.583Z,97843.53
2022-09-01T22:04:11.325Z,97841.53
2022-09-01T22:06:39.948Z,97838.22
2022-09-01T22:09:20.451Z,97833.25
2022-09-01T22:11:49.739Z,97840.38
2022-09-01T22:14:17.284Z,97829.75
2022-09-01T22:16:44.628Z,97829.59
2022-09-01T22:19:11.425Z,97831.44
2022-09-01T22:21:40.137Z,97829.97
2022-09-01T22:24:07.502Z,97829.09
2022-09-01T22:26:35.117Z,97828.66
2022-09-01T22:29:04.067Z,97830.16
2022-09-01T22:31:32.421Z,97822.72
2022-09-01T22:34:00.319Z,97823.91
2022-09-01T22:36:33.619Z,97825.72
2022-09-01T22:39:00.480Z,97823.06
2022-09-01T22:41:29.311Z,97825.06
2022-09-01T22:43:57.951Z,97823.06
2022-09-01T22:46:27.201Z,97830.03
2022-09-01T22:48:56.606Z,97819.41
2022-09-01T22:51:24.169Z,97815.13
2022-09-01T22:53:51.323Z,97813.28
2022-09-01T22:56:21.924Z,97814.09
2022-09-01T22:58:50.361Z,97820.13
2022-09-01T23:01:20.880Z,97822.94
2022-09-01T23:03:48.129Z,97813.16
2022-09-01T23:06:24.362Z,97814.16
2022-09-01T23:08:56.923Z,97818.66
2022-09-01T23:11:24.303Z,97820.47
2022-09-01T23:13:51.175Z,97818.00
2022-09-01T23:16:20.119Z,97818.66
2022-09-01T23:18:48.387Z,97815.16
2022-09-01T23:21:17.830Z,97820.47
2022-09-01T23:23:45.024Z,97820.13
2022-09-01T23:26:14.498Z,97817.63
2022-09-01T23:28:42.584Z,97809.50
2022-09-01T23:31:11.810Z,97816.66
2022-09-01T23:33:38.678Z,97813.16
2022-09-01T23:36:09.273Z,97811.16
2022-09-01T23:38:37.174Z,97809.16
2022-09-01T23:41:13.494Z,97809.16
2022-09-01T23:43:40.457Z,97802.88
2022-09-01T23:46:08.017Z,97800.22
2022-09-01T23:48:34.857Z,97797.28
2022-09-01T23:51:11.518Z,97795.44
2022-09-01T23:53:39.408Z,97798.91
2022-09-01T23:56:18.834Z,97799.34
2022-09-01T23:58:46.014Z,97794.69
